Nearby METAR Reports

 

KIMT - Iron Mountain, Michigan, USA
Distance from station: 0 29mi, 47km
Updated: Sun, 22-Apr-2018 8:54am CDT
Clear
Clear
 Wind from S
Wind: S 5 mph , 7 km/h
Temperature: 45°F , 7°C
Wind Chill: 42°F , 6°C
Dew Point: 23°F , -5°C
Humidity: 42%
Barometer: 30.38 inHg , 1028.8 hPa
Clouds: Clear
Visibility: 10 miles , 16 km
2018/04/22 13:54 KIMT 221354Z AUTO 18004KT 10SM CLR 07/M05 A3038 RMK AO2 SLP298 T00671050
KMNM - Menominee, Michigan, USA
Distance from station: SE 31mi, 51km
Updated: Sun, 22-Apr-2018 8:56am CDT
Clear
Clear
 
Temperature: 48°F , 9°C
Dew Point: 30°F , -1°C
Humidity: 50%
Barometer: 30.42 inHg , 1030.1 hPa
Clouds: Clear
Visibility: 10 miles , 16 km
2018/04/22 13:56 KMNM 221356Z AUTO 10SM CLR 09/M01 A3042 RMK AO2 SLP324 T00891006 $
 
KOCQ - Oconto, Wisconsin, USA
Distance from station: SSE 38mi, 61km
Updated: Sun, 22-Apr-2018 8:55am CDT
Clear
Clear
 Wind from calm
Wind: Calm
Temperature: 45°F , 7°C
Dew Point: 30°F , -1°C
Humidity: 57%
Barometer: 30.40 inHg , 1029.5 hPa
Clouds: Clear
Visibility: 10 miles , 16 km
2018/04/22 13:55 KOCQ 221355Z AUTO 00000KT 10SM CLR 07/M01 A3040 RMK AO1 T00681006
KEZS - Shawano Muni, Wisconsin, USA
Distance from station: SSW 48mi, 77km
Updated: Sun, 22-Apr-2018 8:55am CDT
Clear
Clear
 Wind from calm
Wind: Calm
Temperature: 41°F , 5°C
Dew Point: 30°F , -1°C
Humidity: 66%
Barometer: 30.40 inHg , 1029.5 hPa
Clouds: Clear
Visibility: 10 miles , 16 km
2018/04/22 13:55 KEZS 221355Z AUTO 00000KT 10SM CLR 05/M01 A3040 RMK AO2 T00521012
 
KAIG - Antigo/Langlade, Wisconsin, USA
Distance from station: WSW 51mi, 82km
Updated: Sun, 22-Apr-2018 8:55am CDT
Clear
Clear
 Wind from calm
Wind: Calm
Temperature: 45°F , 7°C
Dew Point: 34°F , 1°C
Humidity: 66%
Barometer: 30.39 inHg , 1029.1 hPa
Clouds: Clear
Visibility: 10 miles , 16 km
2018/04/22 13:55 KAIG 221355Z AUTO 00000KT 10SM CLR 07/01 A3039 RMK AO2 T00660013
KSUE - Sturgeon Bay, Wisconsin, USA
Distance from station: SE 51mi, 82km
Updated: Sun, 22-Apr-2018 8:56am CDT
Clear
Clear
 Wind from calm
Wind: Calm
Temperature: 48°F , 9°C
Dew Point: 28°F , -2°C
Humidity: 46%
Barometer: 30.42 inHg , 1030.1 hPa
Clouds: Clear
Visibility: 10 miles , 16 km
2018/04/22 13:56 KSUE 221356Z AUTO 00000KT 10SM CLR 09/M02 A3042 RMK AO2 SLP327 T00891022
 
KESC - Escanaba, Michigan, USA
Distance from station: ENE 56mi, 90km
Updated: Sun, 22-Apr-2018 8:56am CDT
Clear
Clear
 Wind from calm
Wind: Calm
Temperature: 45°F , 7°C
Dew Point: 28°F , -2°C
Humidity: 53%
Barometer: 30.42 inHg , 1030.1 hPa
Clouds: Clear
Visibility: 10 miles , 16 km
2018/04/22 13:56 KESC 221356Z AUTO 00000KT 10SM CLR 07/M02 A3042 RMK AO2 SLP326 T00721022
KCLI - Clintonville, Wisconsin, USA
Distance from station: SSW 62mi, 99km
Updated: Sun, 22-Apr-2018 8:55am CDT
Clear
Clear
 Wind from calm
Wind: Calm
Temperature: 39°F , 4°C
Dew Point: 27°F , -3°C
Humidity: 61%
Barometer: 30.41 inHg , 1029.8 hPa
Clouds: Clear
Visibility: 10 miles , 16 km
2018/04/22 13:55 KCLI 221355Z AUTO 00000KT 10SM CLR 04/M03 A3041 RMK AO2 T00351030
 
KGRB - Ashwaubenon, Wisconsin, USA
Distance from station: S 63mi, 102km
Updated: Sun, 22-Apr-2018 8:53am CDT
Clear
Clear
 Wind from calm
Wind: Calm
Temperature: 46°F , 8°C
Dew Point: 34°F , 1°C
Humidity: 62%
Barometer: 30.41 inHg , 1029.8 hPa
Clouds: Clear
Visibility: 10 miles , 16 km
2018/04/22 13:53 KGRB 221353Z 00000KT 10SM CLR 08/01 A3041 RMK AO2 SLP303 T00780011
KEGV - Eagle River, Wisconsin, USA
Distance from station: NW 66mi, 107km
Updated: Sun, 22-Apr-2018 8:55am CDT
Clear
Clear
 Wind from calm
Wind: Calm
Temperature: 39°F , 4°C
Dew Point: 21°F , -6°C
Humidity: 48%
Barometer: 30.37 inHg , 1028.4 hPa
Clouds: Clear
Visibility: 10 miles , 16 km
2018/04/22 13:55 KEGV 221355Z AUTO 00000KT 10SM CLR 04/M06 A3037 RMK AO2 T00391065
 
KRHI - Rhinelander, Wisconsin, USA
Distance from station: WNW 68mi, 109km
Updated: Sun, 22-Apr-2018 8:53am CDT
Clear
Clear
 Wind from calm
Wind: Calm
Temperature: 43°F , 6°C
Dew Point: 27°F , -3°C
Humidity: 53%
Barometer: 30.38 inHg , 1028.8 hPa
Clouds: Clear
Visibility: 10 miles , 16 km
2018/04/22 13:53 KRHI 221353Z AUTO 00000KT 10SM CLR 06/M03 A3038 RMK AO2 SLP302 T00561028
KLNL - Land O Lakes, Wisconsin, USA
Distance from station: NW 74mi, 119km
Updated: Sun, 22-Apr-2018 8:55am CDT
Clear
Clear
 Wind from calm
Wind: Calm
Temperature: 45°F , 7°C
Dew Point: 19°F , -7°C
Humidity: 37%
Barometer: 30.39 inHg , 1029.1 hPa
Clouds: Clear
Visibility: 10 miles , 16 km
2018/04/22 13:55 KLNL 221355Z AUTO 00000KT 10SM CLR 07/M07 A3039 RMK AO2 T00701074
 
KSAW - Gwinn/Sawyer, Michigan, USA
Distance from station: NNE 74mi, 120km
Updated: Sun, 22-Apr-2018 8:45am CDT
Clear
Clear
 Wind from SW
Wind: SW 3 mph , 6 km/h
Temperature: 39°F , 4°C
Dew Point: 25°F , -4°C
Humidity: 56%
Barometer: 30.39 inHg , 1029.1 hPa
Clouds: Clear
Visibility: 10 miles , 16 km
2018/04/22 13:45 KSAW 221345Z 23003KT 10SM SKC 04/M04 A3039